Tiempo atmosférico en la estación meteorológica de Quintana del Castillo, Villameca, León (995 m.)



Fecha
DESCASC
Temp. máxima en grados centígrados (hora)
DESCASC
Temp. mínima en grados centígrados (hora)
DESCASC
Temp. media en grados centígrados
DESCASC
Racha de viento máxima en m/sg (hora)
DESCASC
Velocidad máxima media en intervalos de 10 minutos(hora)
DESCASC
Precipitaciones diarias en mm
DESCASC
Precipitaciones de 00:00 a 06:00 en mm
DESCASC
Precipitaciones de 06:00 a 12:00 en mm
DESCASC
Precipitaciones de 12:00 a 18:00 en mm
DESCASC
Precipitaciones de 18:00 a 24:00 en mm
DESCASC
15-08-2019 27.5 (17:10) 13.2 (07:10) 20.3 11.39 (15:30) 6.94 (15:40) 0 0 0 0 0
14-08-2019 26.8 (17:20) 11 (00:00) 18.9 12.5 (19:00) 8.61 (20:30) 0 0 0 0 0
13-08-2019 23.7 (17:40) 6.8 (00:00) 15.3 8.89 (18:10) 5.28 (18:40) 0 0 0 0 0
12-08-2019 19.5 (16:20) 6.5 (00:00) 13 9.44 (16:10) 6.39 (17:30) 0 0 0 0 0
11-08-2019 19.3 (17:30) 10.8 (00:00) 15 15 (17:50) 9.72 (17:50) 0 0 0 0 0
10-08-2019 22.6 (17:10) 10.3 (00:00) 16.5 10.83 (12:00) 6.67 (10:50) 0 0 0 0 0
09-08-2019 19.8 (00:00) 14.4 (00:00) 17.1 15.56 (15:00) 10 (13:00) 5.4 0.2 5.2 0 0
08-08-2019 24 (16:50) 15.7 (00:00) 19.8 11.94 (16:20) 6.39 (15:50) 0.2 0.2 0 0 0
07-08-2019 22.4 (15:00) 14.4 (00:00) 18.4 10.83 (16:50) 6.67 (17:20) 1 0 0 0.2 0.8
06-08-2019 24.8 (14:40) 14.4 (00:00) 19.6 12.22 (19:00) 8.33 (19:00) 0 0 0 0 0
05-08-2019 28.2 (18:20) 12.6 (00:00) 20.4 10 (18:00) 6.39 (20:20) 0 0 0 0 0
04-08-2019 27.9 (17:20) 16.3 (00:00) 22.1 12.5 (18:40) 7.78 (18:40) 0 0 0 0 0
03-08-2019 29.8 (16:30) 15.3 (00:00) 22.5 12.22 (20:10) 8.06 (19:20) 0 0 0 0 0
02-08-2019 29.1 (17:40) 11.8 (00:00) 20.5 6.11 (14:20) 4.17 (02:40) 0 0 0 0 0
01-08-2019 27.5 (17:30) 13 (00:00) 20.3 9.72 (20:00) 5.83 (19:50) 0 0 0 0 0
31-07-2019 24.5 (18:50) 9.2 (00:00) 16.8 4.72 (02:30) 3.89 (02:40) 0 0 0 0 0
30-07-2019 21.7 (18:40) 7.9 (00:00) 14.8 13.61 (00:20) 9.17 (01:00) 0 0 0 0 0
29-07-2019 20.1 (16:40) 11.8 (00:00) 16 14.17 (18:10) 9.44 (18:10) 0 0 0 0 0
28-07-2019 24.2 (18:00) 7.7 (00:00) 16 8.89 (17:50) 3.89 (02:10) 0 0 0 0 0
27-07-2019 18.5 (17:30) 11.1 (00:00) 14.8 10.56 (16:10) 6.39 (20:00) 5.8 0.4 4.4 1 0
26-07-2019 21.8 (18:10) 11.1 (00:00) 16.4 13.61 (14:40) 8.33 (14:40) 0 0 0 0 0
25-07-2019 29.2 (16:00) 14.2 (00:00) 21.7 13.89 (14:30) 8.33 (16:30) 0 0 0 0 0
24-07-2019 31 (17:20) 16 (00:00) 23.5 9.44 (17:30) 6.11 (22:10) 0 0 0 0 0
23-07-2019 29.2 (15:40) 15.1 (00:00) 22.2 17.22 (18:00) 8.33 (18:00) 38.4 0 0.2 10.8 27.4
22-07-2019 33.8 (17:30) 16.1 (00:00) 24.9 13.89 (20:40) 5.83 (20:10) 6 0 0 0 6
21-07-2019 30.6 (18:20) 12.6 (00:00) 21.6 8.06 (21:50) 4.72 (20:40) 0 0 0 0 0
20-07-2019 28.4 (17:20) 15.2 (00:00) 21.8 13.61 (15:10) 7.5 (15:00) 0 0 0 0 0
19-07-2019 30.9 (16:30) 13.6 (00:00) 22.3 13.06 (19:10) 8.06 (19:20) 0 0 0 0 0
18-07-2019 28.6 (17:30) 11.3 (00:00) 20 9.17 (21:50) 6.11 (19:50) 0 0 0 0 0

Gráficas

Temp. máximas Temp. mínimas Temp. medias Precipitaciones Rachas de viento máximas Velocidades máximas media en intervalos de 10 minutos

Datos horarios

Fecha y hora oficial Temperatura (ºC) Velocidad del viento (km/h) Dirección del viento Racha (km/h) Dirección de racha Precipitación (mm) Presión (hPa) Tendencia (hPa) Humedad (%)
2019-08-16 23:00:00 22.1 17 Noroeste 37 Noroeste 0 -- -- 53
2019-08-16 22:00:00 22.8 16 Noroeste 30 Noroeste 0 -- -- 48
2019-08-16 21:00:00 24.1 13 Noroeste 39 Noroeste 0 -- -- 37
2019-08-16 20:00:00 26.2 29 Noroeste 50 Noroeste 0 -- -- 29
2019-08-16 19:00:00 28 29 Noroeste 43 Noroeste 0 -- -- 27
2019-08-16 18:00:00 28.8 23 Noroeste 39 Noroeste 0 -- -- 31
2019-08-16 17:00:00 28.9 24 Noroeste 38 Oeste 0 -- -- 21
2019-08-16 16:00:00 28.6 24 Noroeste 38 Oeste 0 -- -- 21
2019-08-16 15:00:00 27.9 21 Noroeste 34 Noroeste 0 -- -- 24
2019-08-16 14:00:00 26.4 18 Noroeste 32 Noroeste 0 -- -- 24
2019-08-16 13:00:00 24.8 22 Oeste 30 Oeste 0 -- -- 34
2019-08-16 12:00:00 23.3 15 Oeste 27 Noroeste 0 -- -- 51
2019-08-16 11:00:00 22.2 11 Oeste 19 Oeste 0 -- -- 58
2019-08-16 10:00:00 20.3 3 Sudeste 6 Oeste 0 -- -- 68
2019-08-16 09:00:00 16.3 0 Calma 9 Nordeste 0 -- -- 76
2019-08-16 08:00:00 13.7 2 Nordeste 6 Norte 0 -- -- 89
2019-08-16 07:00:00 13.3 4 Norte 9 Norte 0 -- -- 88
2019-08-16 06:00:00 13.7 4 Norte 15 Norte 0 -- -- 85
2019-08-16 05:00:00 14.1 8 Norte 11 Norte 0 -- -- 86
2019-08-16 04:00:00 15 6 Norte 13 Norte 0 -- -- 82
2019-08-16 03:00:00 15.4 9 Norte 16 Norte 0 -- -- 80
2019-08-16 02:00:00 16 14 Norte 17 Norte 0 -- -- 79
2019-08-16 01:00:00 17.3 6 Norte 13 Norte 0 -- -- 72
2019-08-16 00:00:00 18.6 5 Nordeste 13 Norte 0 -- -- 68
2019-08-15 23:00:00 19.9 5 Nordeste 12 Nordeste 0 -- -- 63
2019-08-15 22:00:00 21.9 6 Norte 19 Noroeste 0 -- -- 55
2019-08-15 21:00:00 24.3 13 Noroeste 26 Noroeste 0 -- -- 46
2019-08-15 20:00:00 26.1 18 Noroeste 34 Oeste 0 -- -- 42
2019-08-15 19:00:00 26.8 22 Noroeste 39 Oeste 0 -- -- 42
2019-08-15 18:00:00 27.4 19 Noroeste 40 Oeste 0 -- -- 42
2019-08-15 17:00:00 27.3 23 Noroeste 39 Noroeste 0 -- -- 41
2019-08-15 16:00:00 26.5 19 Oeste 41 Oeste 0 -- -- 40
2019-08-15 15:00:00 26.2 20 Noroeste 39 Oeste 0 -- -- 43
2019-08-15 14:00:00 25 15 Oeste 28 Sudoeste 0 -- -- 46
2019-08-15 13:00:00 24 13 Oeste 28 Oeste 0 -- -- 49
2019-08-15 12:00:00 22.7 17 Oeste 27 Sudoeste 0 -- -- 46
2019-08-15 11:00:00 20.6 9 Norte 17 Norte 0 -- -- 55
2019-08-15 10:00:00 18 14 Norte 22 Norte 0 -- -- 60
2019-08-15 09:00:00 15.6 15 Norte 23 Norte 0 -- -- 77
2019-08-15 08:00:00 13.7 15 Norte 24 Norte 0 -- -- 86
2019-08-15 07:00:00 13.3 12 Norte 17 Norte 0 -- -- 89
2019-08-15 06:00:00 13.6 11 Norte 17 Noroeste 0 -- -- 89
2019-08-15 05:00:00 14.3 4 Nordeste 15 Norte 0 -- -- 86
2019-08-15 04:00:00 15.1 7 Nordeste 16 Nordeste 0 -- -- 84
2019-08-15 03:00:00 15.5 5 Sudeste 16 Norte 0 -- -- 80
2019-08-15 02:00:00 15.9 7 Este 25 Nordeste 0 -- -- 84
2019-08-15 01:00:00 16.1 3 Oeste 13 Nordeste 0 -- -- 81
2019-08-15 00:00:00 17.4 4 Norte 12 Oeste 0 -- -- 78
2019-08-14 23:00:00 18.2 4 Sudoeste 15 Sudoeste 0 -- -- 73
2019-08-14 22:00:00 19.9 9 Sudoeste 38 Oeste 0 -- -- 67
2019-08-14 21:00:00 22.2 21 Oeste 44 Oeste 0 -- -- 60
2019-08-14 20:00:00 24.6 28 Noroeste 44 Oeste 0 -- -- 53
2019-08-14 19:00:00 25.4 29 Oeste 45 Oeste 0 -- -- 52
2019-08-14 18:00:00 26.1 27 Noroeste 44 Noroeste 0 -- -- 49
2019-08-14 17:00:00 26.4 24 Oeste 44 Oeste 0 -- -- 47
2019-08-14 16:00:00 25.4 23 Noroeste 42 Oeste 0 -- -- 47
2019-08-14 15:00:00 24.6 30 Noroeste 44 Oeste 0 -- -- 49
2019-08-14 14:00:00 23.9 24 Oeste 40 Oeste 0 -- -- 48
2019-08-14 13:00:00 22.4 26 Noroeste 39 Noroeste 0 -- -- 50
2019-08-14 12:00:00 21.1 24 Noroeste 37 Oeste 0 -- -- 51
2019-08-14 11:00:00 19.4 18 Oeste 29 Noroeste 0 -- -- 54
2019-08-14 10:00:00 17.6 3 Este 12 Norte 0 -- -- 62
2019-08-14 09:00:00 14.5 0 Calma 15 Norte 0 -- -- 69
2019-08-14 08:00:00 11.8 5 Nordeste 15 Norte 0 -- -- 77
2019-08-14 07:00:00 11.1 4 Noroeste 12 Norte 0 -- -- 76
2019-08-14 06:00:00 11.8 6 Norte 10 Norte 0 -- -- 79
2019-08-14 05:00:00 12.2 0 Calma 14 Norte 0 -- -- 69
2019-08-14 04:00:00 14.3 10 Norte 20 Norte 0 -- -- 64
2019-08-14 03:00:00 15.2 12 Norte 21 Norte 0 -- -- 60
2019-08-14 02:00:00 15.2 19 Norte 30 Norte 0 -- -- 61
2019-08-14 01:00:00 15.2 11 Norte 19 Noroeste 0 -- -- 58
2019-08-14 00:00:00 17.3 12 Noroeste 24 Noroeste 0 -- -- 48
2019-08-13 23:00:00 18.1 7 Noroeste 24 Noroeste 0 -- -- 54
2019-08-13 22:00:00 19.8 17 Noroeste 28 Noroeste 0 -- -- 45
2019-08-13 21:00:00 21.4 13 Noroeste 26 Noroeste 0 -- -- 41
2019-08-13 20:00:00 23.3 13 Noroeste 27 Noroeste 0 -- -- 32
2019-08-13 19:00:00 23.5 17 Noroeste 32 Oeste 0 -- -- 29
2019-08-13 18:00:00 23.6 17 Noroeste 31 Noroeste 0 -- -- 28
2019-08-13 17:00:00 23.2 14 Noroeste 31 Noroeste 0 -- -- 33
2019-08-13 16:00:00 22.9 14 Noroeste 26 Noroeste 0 -- -- 34
2019-08-13 15:00:00 21.8 9 Sur 25 Sudoeste 0 -- -- 45
2019-08-13 14:00:00 20.2 6 Sudoeste 25 Sur 0 -- -- 51
2019-08-13 13:00:00 18.6 6 Sur 17 Sudoeste 0 -- -- 53
2019-08-13 12:00:00 16.3 7 Sudoeste 14 Oeste 0 -- -- 60
2019-08-13 11:00:00 14.2 3 Nordeste 11 Sudoeste 0 -- -- 70
2019-08-13 10:00:00 12.6 2 Oeste 8 Norte 0 -- -- 77
2019-08-13 09:00:00 9.2 7 Norte 11 Norte 0 -- -- 90
2019-08-13 08:00:00 7.3 8 Norte 12 Norte 0 -- -- 96
2019-08-13 07:00:00 7.1 9 Norte 12 Norte 0 -- -- 94
2019-08-13 06:00:00 7.5 9 Norte 13 Norte 0 -- -- 93
2019-08-13 05:00:00 8.2 10 Norte 13 Norte 0 -- -- 92
2019-08-13 04:00:00 8.9 4 Norte 8 Norte 0 -- -- 90
2019-08-13 03:00:00 9.6 3 Noroeste 13 Norte 0 -- -- 85
2019-08-13 02:00:00 11.2 6 Este 12 Este 0 -- -- 81
2019-08-13 01:00:00 12 3 Sur 19 Norte 0 -- -- 74
2019-08-13 00:00:00 13.4 12 Norte 17 Norte 0 -- -- 69
2019-08-12 23:00:00 14.3 8 Norte 17 Nordeste 0 -- -- 65
2019-08-12 22:00:00 14.9 12 Este 23 Noroeste 0 -- -- 60
2019-08-12 21:00:00 15.7 15 Oeste 25 Noroeste 0 -- -- 54
2019-08-12 20:00:00 17.9 8 Norte 20 Norte 0 -- -- 49
2019-08-12 19:00:00 17.5 9 Noroeste 27 Noroeste 0 -- -- 48
2019-08-12 18:00:00 17.3 17 Noroeste 33 Noroeste 0 -- -- 45
2019-08-12 17:00:00 18.3 21 Oeste 34 Oeste 0 -- -- 43
2019-08-12 16:00:00 18.9 17 Oeste 29 Oeste 0 -- -- 43
2019-08-12 15:00:00 18.4 8 Norte 23 Norte 0 -- -- 41
2019-08-12 14:00:00 17.2 5 Norte 20 Norte 0 -- -- 46
2019-08-12 13:00:00 16 5 Sudoeste 27 Oeste 0 -- -- 56
2019-08-12 12:00:00 14.7 14 Oeste 28 Oeste 0 -- -- 60
2019-08-12 11:00:00 13 10 Oeste 22 Oeste 0 -- -- 66
2019-08-12 10:00:00 10.6 10 Oeste 22 Oeste 0 -- -- 79
2019-08-12 09:00:00 8.9 13 Norte 24 Norte 0 -- -- 88
2019-08-12 08:00:00 7.1 19 Norte 26 Norte 0 -- -- 94
2019-08-12 07:00:00 6.5 17 Norte 22 Norte 0 -- -- 93
2019-08-12 06:00:00 7 16 Norte 21 Norte 0 -- -- 91
2019-08-12 05:00:00 7.8 5 Norte 17 Oeste 0 -- -- 89
2019-08-12 04:00:00 8.4 10 Nordeste 21 Nordeste 0 -- -- 84
2019-08-12 03:00:00 8.2 12 Norte 18 Noroeste 0 -- -- 81
2019-08-12 02:00:00 9.6 9 Norte 15 Norte 0 -- -- 77
2019-08-12 01:00:00 10.5 8 Nordeste 21 Norte 0 -- -- 72
2019-08-12 00:00:00 10.9 12 Nordeste 17 Nordeste 0 -- -- 72
2019-08-11 23:00:00 11.7 10 Nordeste 22 Norte 0 -- -- 69
2019-08-11 22:00:00 12.7 11 Norte 35 Noroeste 0 -- -- 63
2019-08-11 21:00:00 14.2 21 Noroeste 37 Noroeste 0 -- -- 57
2019-08-11 20:00:00 15.2 23 Noroeste 45 Norte 0 -- -- 55
2019-08-11 19:00:00 16 20 Noroeste 45 Noroeste 0 -- -- 51
2019-08-11 18:00:00 17.9 29 Noroeste 54 Oeste 0 -- -- 49
2019-08-11 17:00:00 18.9 25 Oeste 50 Oeste 0 -- -- 40
2019-08-11 16:00:00 18.9 21 Oeste 46 Oeste 0 -- -- 41
2019-08-11 15:00:00 18.2 27 Oeste 44 Oeste 0 -- -- 42
2019-08-11 14:00:00 17.5 23 Oeste 40 Oeste 0 -- -- 51
2019-08-11 13:00:00 16.7 25 Oeste 36 Noroeste 0 -- -- 54
2019-08-11 12:00:00 15.8 22 Noroeste 35 Oeste 0 -- -- 62
2019-08-11 11:00:00 13.7 22 Oeste 35 Noroeste 0 -- -- 75
2019-08-11 10:00:00 12.1 12 Oeste 27 Noroeste 0 -- -- 86
2019-08-11 09:00:00 12.3 15 Oeste 22 Noroeste 0 -- -- 85
2019-08-11 08:00:00 12.1 8 Noroeste 17 Noroeste 0 -- -- 86
2019-08-11 07:00:00 12.2 6 Noroeste 15 Norte 0 -- -- 84
2019-08-11 06:00:00 12.5 11 Norte 21 Nordeste 0 -- -- 87
2019-08-11 05:00:00 12.7 9 Nordeste 24 Noroeste 0 -- -- 86
2019-08-11 04:00:00 13.1 6 Sudoeste 22 Noroeste 0 -- -- 81
2019-08-11 03:00:00 14 17 Oeste 36 Oeste 0 -- -- 76
2019-08-11 02:00:00 14.5 23 Norte 34 Noroeste 0 -- -- 73
2019-08-11 01:00:00 14.6 11 Norte 17 Norte 0 -- -- 73
2019-08-11 00:00:00 15.1 8 Norte 16 Norte 0 -- -- 69
2019-08-10 23:00:00 16 9 Norte 29 Noroeste 0 -- -- 65
2019-08-10 22:00:00 16.6 15 Noroeste 33 Noroeste 0 -- -- 59
2019-08-10 21:00:00 18.3 16 Noroeste 32 Noroeste 0 -- -- 51
2019-08-10 20:00:00 19.2 19 Noroeste 34 Oeste 0 -- -- 49
2019-08-10 19:00:00 20.2 21 Noroeste 35 Noroeste 0 -- -- 48
2019-08-10 18:00:00 21.8 11 Noroeste 31 Oeste 0 -- -- 45
2019-08-10 17:00:00 22.5 10 Noroeste 22 Oeste 0 -- -- 43
2019-08-10 16:00:00 21.5 12 Oeste 23 Oeste 0 -- -- 44
2019-08-10 15:00:00 20 10 Oeste 31 Noroeste 0 -- -- 46
2019-08-10 14:00:00 18.8 16 Oeste 32 Oeste 0 -- -- 49
2019-08-10 13:00:00 17.2 20 Oeste 34 Oeste 0 -- -- 57
2019-08-10 12:00:00 15.9 23 Noroeste 39 Oeste 0 -- -- 59
2019-08-10 11:00:00 14.7 22 Noroeste 34 Noroeste 0 -- -- 66
2019-08-10 10:00:00 13.4 17 Noroeste 29 Noroeste 0 -- -- 73
2019-08-10 09:00:00 12.4 4 Norte 15 Nordeste 0 -- -- 81
2019-08-10 08:00:00 11.2 6 Nordeste 12 Nordeste 0 -- -- 85
2019-08-10 07:00:00 10.5 7 Noroeste 13 Noroeste 0 -- -- 86
2019-08-10 06:00:00 11.7 3 Sudoeste 21 Oeste 0 -- -- 85
2019-08-10 05:00:00 12.6 10 Noroeste 27 Noroeste 0 -- -- 79
2019-08-10 04:00:00 12.1 4 Oeste 19 Noroeste 0 -- -- 84
2019-08-10 03:00:00 12.3 2 Nordeste 14 Sudoeste 0 -- -- 83
2019-08-10 02:00:00 13 4 Oeste 20 Noroeste 0 -- -- 77
2019-08-10 01:00:00 13.2 5 Noroeste 13 Noroeste 0 -- -- 78
2019-08-10 00:00:00 14.4 4 Noroeste 17 Noroeste 0 -- -- 74
2019-08-09 23:00:00 14.8 12 Noroeste 18 Norte 0 -- -- 69
2019-08-09 22:00:00 15.2 11 Noroeste 33 Noroeste 0 -- -- 66
2019-08-09 21:00:00 16.3 20 Noroeste 40 Oeste 0 -- -- 59
2019-08-09 20:00:00 17.1 24 Noroeste 37 Oeste 0 -- -- 59
2019-08-09 19:00:00 18.3 19 Noroeste 40 Noroeste 0 -- -- 61
2019-08-09 18:00:00 18.8 25 Oeste 41 Oeste 0 -- -- 56
2019-08-09 17:00:00 18.4 29 Oeste 43 Noroeste 0 -- -- 57
2019-08-09 16:00:00 18.8 24 Noroeste 56 Noroeste 0 -- -- 55
2019-08-09 15:00:00 18.6 33 Noroeste 56 Noroeste 0 -- -- 51
2019-08-09 14:00:00 18.8 29 Noroeste 50 Oeste 0 -- -- 54
2019-08-09 13:00:00 18.4 36 Noroeste 54 Noroeste 0 -- -- 57
2019-08-09 12:00:00 16.9 28 Noroeste 44 Noroeste 0 -- -- 65
2019-08-09 11:00:00 16.3 24 Noroeste 47 Noroeste 0 -- -- 70
2019-08-09 10:00:00 15.6 26 Noroeste 44 Noroeste 0 -- -- 77
2019-08-09 09:00:00 15.6 14 Noroeste 27 Noroeste 0 -- -- 83
2019-08-09 08:00:00 15.6 17 Noroeste 37 Noroeste 0.4 -- -- 88
2019-08-09 07:00:00 17.3 10 Oeste 24 Noroeste 4.8 -- -- 97
2019-08-09 06:00:00 17.6 9 Oeste 21 Sur 0.2 -- -- 95
2019-08-09 05:00:00 18.1 9 Sudoeste 27 Sudoeste 0 -- -- 91
2019-08-09 04:00:00 18.2 12 Sudoeste 28 Sudoeste 0 -- -- 90
2019-08-09 03:00:00 18.7 14 Sudoeste 28 Sudoeste 0 -- -- 86
2019-08-09 02:00:00 19 9 Sudoeste 23 Sudoeste 0 -- -- 82
2019-08-09 01:00:00 19.3 9 Sudoeste 21 Sudoeste 0 -- -- 79
2019-08-09 00:00:00 19.8 9 Sudoeste 29 Sudoeste 0 -- -- 75
2019-08-08 23:00:00 20.3 13 Sudoeste 30 Sudoeste 0 -- -- 70
2019-08-08 22:00:00 20.3 4 Sudoeste 24 Oeste 0 -- -- 78
2019-08-08 21:00:00 21.2 17 Oeste 40 Oeste 0 -- -- 75
2019-08-08 20:00:00 23 22 Oeste 42 Oeste 0 -- -- 64
2019-08-08 19:00:00 23.2 14 Oeste 38 Sudoeste 0 -- -- 68
2019-08-08 18:00:00 23.5 18 Sudoeste 37 Oeste 0 -- -- 67
2019-08-08 17:00:00 24 21 Sudoeste 43 Sudoeste 0 -- -- 67
2019-08-08 16:00:00 23.4 19 Sudoeste 38 Sudoeste 0 -- -- 73
2019-08-08 15:00:00 21.3 11 Sur 23 Sur 0 -- -- 82
2019-08-08 14:00:00 21.4 9 Sur 22 Sur 0 -- -- 79
2019-08-08 13:00:00 20.1 7 Sur 12 Sur 0 -- -- 84
2019-08-08 12:00:00 18.1 5 Sudoeste 9 Sudoeste 0 -- -- 90
2019-08-08 11:00:00 17.1 2 Sudoeste 7 Sudeste 0 -- -- 94
2019-08-08 10:00:00 16.3 3 Sur 10 Sudeste 0 -- -- 95
2019-08-08 09:00:00 16 2 Sudeste 7 Sudeste 0 -- -- 97
2019-08-08 08:00:00 15.7 4 Sur 11 Sur 0 -- -- 97
2019-08-08 07:00:00 15.9 7 Sudeste 13 Este 0 -- -- 97
2019-08-08 06:00:00 15.8 6 Sudeste 9 Sudeste 0 -- -- 96
2019-08-08 05:00:00 15.8 2 Sudeste 8 Sudeste 0 -- -- 95
2019-08-08 04:00:00 16.1 3 Sudeste 7 Sudeste 0 -- -- 95
2019-08-08 03:00:00 16 0 Calma 8 Nordeste 0 -- -- 96
2019-08-08 02:00:00 15.8 2 Oeste 5 Noroeste 0.2 -- -- 97
2019-08-08 01:00:00 15.8 2 Norte 9 Este 0 -- -- 97
2019-08-08 00:00:00 16.1 4 Este 7 Este 0 -- -- 95
2019-08-07 23:00:00 16.2 3 Oeste 10 Norte 0 -- -- 92
2019-08-07 22:00:00 17.2 8 Nordeste 12 Oeste 0 -- -- 93
2019-08-07 21:00:00 16.9 10 Oeste 14 Noroeste 0 -- -- 92
2019-08-07 20:00:00 17.6 4 Oeste 19 Norte 0 -- -- 89
2019-08-07 19:00:00 16.4 6 Noroeste 22 Norte 0.8 -- -- 90
2019-08-07 18:00:00 16.7 17 Norte 32 Norte 0.2 -- -- 90
2019-08-07 17:00:00 19.9 22 Noroeste 39 Noroeste 0 -- -- 66
2019-08-07 16:00:00 21.7 6 Oeste 24 Sudoeste 0 -- -- 57
2019-08-07 15:00:00 22.4 4 Norte 20 Oeste 0 -- -- 57
2019-08-07 14:00:00 21.7 9 Sur 26 Sudoeste 0 -- -- 56
2019-08-07 13:00:00 21.7 4 Sur 19 Sudoeste 0 -- -- 52
2019-08-07 12:00:00 21.3 9 Sudoeste 19 Oeste 0 -- -- 54
2019-08-07 11:00:00 20.4 6 Oeste 12 Sudoeste 0 -- -- 59
2019-08-07 10:00:00 19 4 Sudeste 9 Norte 0 -- -- 65
2019-08-07 09:00:00 16.4 8 Norte 23 Norte 0 -- -- 76
2019-08-07 08:00:00 14.8 17 Norte 22 Norte 0 -- -- 84
2019-08-07 07:00:00 14.5 12 Norte 15 Norte 0 -- -- 86
2019-08-07 06:00:00 15 3 Sudoeste 17 Nordeste 0 -- -- 80
2019-08-07 05:00:00 15.5 6 Este 13 Nordeste 0 -- -- 80
2019-08-07 04:00:00 16.1 10 Nordeste 16 Nordeste 0 -- -- 79
2019-08-07 03:00:00 16.3 7 Norte 10 Norte 0 -- -- 78
2019-08-07 02:00:00 16.2 3 Noroeste 20 Noroeste 0 -- -- 78
2019-08-07 01:00:00 16.7 12 Oeste 20 Oeste 0 -- -- 73
2019-08-07 00:00:00 17.4 8 Norte 28 Noroeste 0 -- -- 76
2019-08-06 23:00:00 18.1 13 Noroeste 30 Noroeste 0 -- -- 67
2019-08-06 22:00:00 18.1 6 Norte 28 Noroeste 0 -- -- 71
2019-08-06 21:00:00 18.4 14 Noroeste 39 Noroeste 0 -- -- 72
2019-08-06 20:00:00 19.9 24 Noroeste 41 Noroeste 0 -- -- 66
2019-08-06 19:00:00 21.9 30 Noroeste 44 Noroeste 0 -- -- 61
2019-08-06 18:00:00 23.5 23 Noroeste 37 Noroeste 0 -- -- 51
2019-08-06 17:00:00 24 17 Noroeste 28 Oeste 0 -- -- 51
2019-08-06 16:00:00 23.8 16 Noroeste 24 Oeste 0 -- -- 53
2019-08-06 15:00:00 24.2 10 Oeste 20 Oeste 0 -- -- 55
2019-08-06 14:00:00 24 7 Oeste 22 Oeste 0 -- -- 55
2019-08-06 13:00:00 23.3 9 Oeste 22 Noroeste 0 -- -- 54
2019-08-06 12:00:00 21.4 10 Oeste 18 Oeste 0 -- -- 58
2019-08-06 11:00:00 19.8 5 Oeste 15 Noroeste 0 -- -- 76
2019-08-06 10:00:00 18.2 11 Noroeste 19 Noroeste 0 -- -- 82
2019-08-06 09:00:00 15.7 3 Oeste 9 Sur 0 -- -- 88
2019-08-06 08:00:00 14.7 4 Oeste 22 Norte 0 -- -- 90
2019-08-06 07:00:00 15.9 9 Nordeste 14 Nordeste 0 -- -- 90
2019-08-06 06:00:00 15.8 8 Norte 21 Norte 0 -- -- 89
2019-08-06 05:00:00 16.1 9 Norte 21 Norte 0 -- -- 86
2019-08-06 04:00:00 16.8 8 Nordeste 27 Norte 0 -- -- 85
2019-08-06 03:00:00 17.3 15 Nordeste 22 Norte 0 -- -- 82
2019-08-06 02:00:00 17.9 13 Nordeste 19 Nordeste 0 -- -- 78
2019-08-06 01:00:00 18.9 9 Nordeste 19 Noroeste 0 -- -- 70
2019-08-06 00:00:00 20.6 5 Norte 21 Noroeste 0 -- -- 63
2019-08-05 23:00:00 21.4 11 Noroeste 25 Noroeste 0 -- -- 57
2019-08-05 22:00:00 23.3 17 Noroeste 33 Noroeste 0 -- -- 50
2019-08-05 21:00:00 25 18 Noroeste 34 Oeste 0 -- -- 45
2019-08-05 20:00:00 26.7 20 Noroeste 34 Noroeste 0 -- -- 44
2019-08-05 19:00:00 27.7 18 Oeste 34 Oeste 0 -- -- 40
2019-08-05 18:00:00 27.8 18 Oeste 36 Oeste 0 -- -- 38
2019-08-05 17:00:00 27.7 18 Oeste 35 Oeste 0 -- -- 36
2019-08-05 16:00:00 27.2 18 Oeste 34 Oeste 0 -- -- 36
2019-08-05 15:00:00 26.3 17 Noroeste 35 Oeste 0 -- -- 40
2019-08-05 14:00:00 25.6 14 Noroeste 28 Oeste 0 -- -- 32
2019-08-05 13:00:00 24.4 8 Oeste 19 Oeste 0 -- -- 43
2019-08-05 12:00:00 22.5 3 Noroeste 10 Oeste 0 -- -- 50
2019-08-05 11:00:00 20.1 4 Sudoeste 10 Oeste 0 -- -- 68
2019-08-05 10:00:00 17.9 4 Sudoeste 8 Sudoeste 0 -- -- 81
2019-08-05 09:00:00 15.4 0 Calma 10 Norte 0 -- -- 83
2019-08-05 08:00:00 13.4 4 Norte 9 Nordeste 0 -- -- 92
2019-08-05 07:00:00 13.4 3 Noroeste 8 Noroeste 0 -- -- 90
2019-08-05 06:00:00 14.5 3 Noroeste 13 Nordeste 0 -- -- 86
2019-08-05 05:00:00 15.5 14 Norte 22 Norte 0 -- -- 86
2019-08-05 04:00:00 16 12 Nordeste 24 Noroeste 0 -- -- 85
2019-08-05 03:00:00 16.3 14 Nordeste 24 Nordeste 0 -- -- 83
2019-08-05 02:00:00 17.2 12 Nordeste 16 Nordeste 0 -- -- 77
2019-08-05 01:00:00 17.8 11 Nordeste 16 Nordeste 0 -- -- 73
2019-08-05 00:00:00 19.2 6 Nordeste 25 Noroeste 0 -- -- 64
2019-08-04 23:00:00 21.1 13 Noroeste 28 Noroeste 0 -- -- 55
2019-08-04 22:00:00 22.5 17 Noroeste 35 Noroeste 0 -- -- 48
2019-08-04 21:00:00 24.4 15 Noroeste 37 Noroeste 0 -- -- 44
2019-08-04 20:00:00 26.2 19 Noroeste 41 Noroeste 0 -- -- 42
2019-08-04 19:00:00 27.2 21 Noroeste 45 Noroeste 0 -- -- 38
2019-08-04 18:00:00 27.7 21 Noroeste 38 Noroeste 0 -- -- 40
2019-08-04 17:00:00 27.7 16 Oeste 37 Noroeste 0 -- -- 40
2019-08-04 16:00:00 26.9 21 Oeste 40 Oeste 0 -- -- 41
2019-08-04 15:00:00 26.7 19 Oeste 33 Sudoeste 0 -- -- 45
2019-08-04 14:00:00 25.5 8 Este 16 Este 0 -- -- 49
2019-08-04 13:00:00 23.9 5 Nordeste 13 Nordeste 0 -- -- 62
2019-08-04 12:00:00 22.4 7 Sudoeste 17 Noroeste 0 -- -- 65
2019-08-04 11:00:00 20.9 7 Oeste 17 Oeste 0 -- -- 71
2019-08-04 10:00:00 18.4 8 Norte 19 Norte 0 -- -- 81
2019-08-04 09:00:00 17.6 4 Nordeste 18 Norte 0 -- -- 84
2019-08-04 08:00:00 16.4 6 Oeste 15 Norte 0 -- -- 87
2019-08-04 07:00:00 16.7 2 Norte 21 Noroeste 0 -- -- 88
2019-08-04 06:00:00 16.7 14 Norte 23 Norte 0 -- -- 86
2019-08-04 05:00:00 16.7 10 Norte 16 Norte 0 -- -- 85
2019-08-04 04:00:00 17.1 11 Norte 19 Norte 0 -- -- 82
2019-08-04 03:00:00 17.5 13 Norte 22 Nordeste 0 -- -- 80
2019-08-04 02:00:00 18.4 13 Nordeste 20 Este 0 -- -- 78
2019-08-04 01:00:00 19.4 5 Este 10 Este 0 -- -- 67
2019-08-04 00:00:00 20.1 6 Este 15 Oeste 0 -- -- 59
2019-08-03 23:00:00 22 5 Noroeste 31 Noroeste 0 -- -- 50
2019-08-03 22:00:00 23.6 13 Noroeste 33 Noroeste 0 -- -- 42
2019-08-03 21:00:00 25.6 21 Noroeste 44 Noroeste 0 -- -- 37
2019-08-03 20:00:00 27.3 24 Noroeste 42 Noroeste 0 -- -- 34
2019-08-03 19:00:00 28.6 26 Oeste 41 Oeste 0 -- -- 34
2019-08-03 18:00:00 29.1 22 Noroeste 38 Oeste 0 -- -- 33
2019-08-03 17:00:00 29.6 20 Oeste 33 Noroeste 0 -- -- 34
2019-08-03 16:00:00 29.4 10 Oeste 26 Noroeste 0 -- -- 34
2019-08-03 15:00:00 28.9 12 Oeste 27 Oeste 0 -- -- 36
2019-08-03 14:00:00 28.4 10 Oeste 20 Oeste 0 -- -- 32
2019-08-03 13:00:00 26.9 5 Este 12 Sur 0 -- -- 38
2019-08-03 12:00:00 25.7 6 Sudoeste 12 Sudoeste 0 -- -- 43
2019-08-03 11:00:00 24.2 3 Sur 9 Sudoeste 0 -- -- 45
2019-08-03 10:00:00 21.2 2 Oeste 7 Norte 0 -- -- 63
2019-08-03 09:00:00 18.2 4 Nordeste 14 Norte 0 -- -- 74
2019-08-03 08:00:00 16 11 Norte 14 Norte 0 -- -- 80
2019-08-03 07:00:00 15.3 11 Norte 18 Norte 0 -- -- 84
2019-08-03 06:00:00 15.5 14 Norte 18 Norte 0 -- -- 85
2019-08-03 05:00:00 16.2 9 Norte 17 Norte 0 -- -- 82
2019-08-03 04:00:00 16.3 12 Norte 15 Norte 0 -- -- 81
2019-08-03 03:00:00 17.1 6 Nordeste 12 Nordeste 0 -- -- 79
2019-08-03 02:00:00 18.6 7 Norte 17 Nordeste 0 -- -- 71
2019-08-03 01:00:00 18.9 9 Norte 14 Norte 0 -- -- 71
2019-08-03 00:00:00 20.2 8 Norte 10 Norte 0 -- -- 66
2019-08-02 23:00:00 21.7 6 Nordeste 17 Noroeste 0 -- -- 65
2019-08-02 22:00:00 23.7 7 Nordeste 18 Noroeste 0 -- -- 59
2019-08-02 21:00:00 26.7 10 Noroeste 18 Noroeste 0 -- -- 41
2019-08-02 20:00:00 28.8 6 Oeste 17 Noroeste 0 -- -- 37
2019-08-02 19:00:00 29.1 3 Este 21 Oeste 0 -- -- 36
2019-08-02 18:00:00 28.5 5 Nordeste 19 Norte 0 -- -- 33
2019-08-02 17:00:00 27.7 5 Sudeste 18 Este 0 -- -- 37
2019-08-02 16:00:00 27.8 6 Sudeste 20 Sur 0 -- -- 35
2019-08-02 15:00:00 27.7 9 Sudoeste 22 Sudoeste 0 -- -- 37
2019-08-02 14:00:00 26.2 7 Sudeste 18 Sudoeste 0 -- -- 39
2019-08-02 13:00:00 25 6 Sur 13 Sur 0 -- -- 46
2019-08-02 12:00:00 23.5 7 Sur 14 Sudoeste 0 -- -- 51
2019-08-02 11:00:00 21.1 4 Sudoeste 7 Sudoeste 0 -- -- 64
2019-08-02 10:00:00 18.2 3 Sudoeste 5 Sudoeste 0 -- -- 74
2019-08-02 09:00:00 14.4 5 Norte 12 Norte 0 -- -- 85
2019-08-02 08:00:00 12.3 8 Norte 12 Norte 0 -- -- 92
2019-08-02 07:00:00 12 8 Nordeste 13 Norte 0 -- -- 93
2019-08-02 06:00:00 12.5 8 Norte 10 Norte 0 -- -- 91
2019-08-02 05:00:00 13 7 Norte 8 Norte 0 -- -- 87
2019-08-02 04:00:00 14.3 5 Nordeste 10 Norte 0 -- -- 87
2019-08-02 03:00:00 14.6 9 Norte 21 Norte 0 -- -- 79
2019-08-02 02:00:00 15.3 13 Norte 15 Norte 0 -- -- 79
2019-08-02 01:00:00 16.8 4 Norte 16 Nordeste 0 -- -- 73
2019-08-02 00:00:00 18.2 6 Nordeste 12 Norte 0 -- -- 68
2019-08-01 23:00:00 19.2 11 Norte 21 Norte 0 -- -- 64
2019-08-01 22:00:00 21.1 14 Norte 20 Norte 0 -- -- 61
2019-08-01 21:00:00 23.4 11 Norte 34 Oeste 0 -- -- 53
2019-08-01 20:00:00 25.8 19 Oeste 35 Noroeste 0 -- -- 36
2019-08-01 19:00:00 26.6 20 Noroeste 29 Noroeste 0 -- -- 35
2019-08-01 18:00:00 27 17 Oeste 31 Noroeste 0 -- -- 30
2019-08-01 17:00:00 27.1 14 Oeste 31 Oeste 0 -- -- 29
2019-08-01 16:00:00 26.5 14 Oeste 32 Oeste 0 -- -- 32
2019-08-01 15:00:00 25.8 16 Oeste 28 Oeste 0 -- -- 31
2019-08-01 14:00:00 25.1 12 Oeste 28 Oeste 0 -- -- 29
2019-08-01 13:00:00 23.9 15 Oeste 28 Oeste 0 -- -- 37
2019-08-01 12:00:00 23.2 8 Sur 14 Sudoeste 0 -- -- 50
2019-08-01 11:00:00 21.6 6 Sur 16 Sudoeste 0 -- -- 54
2019-08-01 10:00:00 19.2 3 Sur 5 Sur 0 -- -- 68
2019-08-01 09:00:00 15.6 3 Noroeste 10 Norte 0 -- -- 72
2019-08-01 08:00:00 13.2 4 Nordeste 6 Nordeste 0 -- -- 79
2019-08-01 07:00:00 13 3 Nordeste 10 Norte 0 -- -- 80
2019-08-01 06:00:00 13.5 8 Norte 10 Norte 0 -- -- 77
2019-08-01 05:00:00 14.1 5 Norte 14 Norte 0 -- -- 74
2019-08-01 04:00:00 13.8 12 Norte 16 Norte 0 -- -- 75
2019-08-01 03:00:00 13.7 12 Norte 14 Norte 0 -- -- 77
2019-08-01 02:00:00 14.6 5 Nordeste 14 Norte 0 -- -- 70
2019-08-01 01:00:00 15.4 6 Norte 15 Sudeste 0 -- -- 65
2019-08-01 00:00:00 15.9 5 Nordeste 14 Norte 0 -- -- 67
2019-07-31 23:00:00 17.6 10 Norte 14 Norte 0 -- -- 57
2019-07-31 22:00:00 19.5 6 Norte 9 Norte 0 -- -- 49
2019-07-31 21:00:00 22.6 3 Sur 5 Sur 0 -- -- 34
2019-07-31 20:00:00 23.9 2 Este 12 Oeste 0 -- -- 31
2019-07-31 19:00:00 24.4 5 Oeste 12 Noroeste 0 -- -- 34
2019-07-31 18:00:00 24.2 5 Noroeste 15 Sudoeste 0 -- -- 36
2019-07-31 17:00:00 23.6 5 Sudoeste 16 Sur 0 -- -- 35
2019-07-31 16:00:00 23.6 7 Sur 14 Sur 0 -- -- 37
2019-07-31 15:00:00 23.2 4 Sudeste 12 Noroeste 0 -- -- 38
2019-07-31 14:00:00 22.1 4 Oeste 11 Sur 0 -- -- 40
2019-07-31 13:00:00 19.9 3 Oeste 10 Oeste 0 -- -- 52
2019-07-31 12:00:00 18.8 3 Sudoeste 10 Oeste 0 -- -- 56
2019-07-31 11:00:00 16.4 2 Este 8 Noroeste 0 -- -- 65
2019-07-31 10:00:00 14.3 2 Sur 6 Sudoeste 0 -- -- 74
2019-07-31 09:00:00 11.7 4 Norte 11 Norte 0 -- -- 84
2019-07-31 08:00:00 9.4 9 Norte 11 Norte 0 -- -- 92
2019-07-31 07:00:00 9.6 7 Norte 10 Norte 0 -- -- 92
2019-07-31 06:00:00 9.6 6 Nordeste 10 Norte 0 -- -- 90
2019-07-31 05:00:00 9.8 5 Nordeste 9 Nordeste 0 -- -- 88
2019-07-31 04:00:00 10.3 4 Nordeste 17 Norte 0 -- -- 83
2019-07-31 03:00:00 10.9 8 Norte 17 Norte 0 -- -- 82
2019-07-31 02:00:00 11.4 9 Norte 12 Norte 0 -- -- 79
2019-07-31 01:00:00 12.9 7 Norte 17 Nordeste 0 -- -- 74
2019-07-31 00:00:00 13.9 9 Norte 15 Norte 0 -- -- 68
2019-07-30 23:00:00 15.3 10 Norte 17 Norte 0 -- -- 61
2019-07-30 22:00:00 17 6 Norte 24 Noroeste 0 -- -- 54
2019-07-30 21:00:00 19 15 Noroeste 31 Noroeste 0 -- -- 39
2019-07-30 20:00:00 21 9 Norte 26 Norte 0 -- -- 35
2019-07-30 19:00:00 21.5 18 Noroeste 32 Oeste 0 -- -- 28
2019-07-30 18:00:00 21.5 19 Noroeste 33 Oeste 0 -- -- 27
2019-07-30 17:00:00 20.7 15 Oeste 31 Oeste 0 -- -- 36
2019-07-30 16:00:00 19.4 18 Noroeste 36 Oeste 0 -- -- 48
2019-07-30 15:00:00 18.2 18 Oeste 36 Oeste 0 -- -- 50
2019-07-30 14:00:00 17.7 15 Oeste 33 Oeste 0 -- -- 53
2019-07-30 13:00:00 16.4 14 Oeste 25 Oeste 0 -- -- 55
2019-07-30 12:00:00 14.8 14 Oeste 27 Oeste 0 -- -- 62
2019-07-30 11:00:00 13.2 7 Noroeste 27 Noroeste 0 -- -- 65
2019-07-30 10:00:00 11.6 10 Noroeste 26 Norte 0 -- -- 75
2019-07-30 09:00:00 9.8 19 Norte 28 Norte 0 -- -- 84
2019-07-30 08:00:00 8.5 14 Norte 21 Norte 0 -- -- 90
2019-07-30 07:00:00 8.2 14 Nordeste 19 Nordeste 0 -- -- 91
2019-07-30 06:00:00 8.5 10 Norte 18 Noroeste 0 -- -- 89
2019-07-30 05:00:00 9.3 10 Nordeste 15 Nordeste 0 -- -- 85
2019-07-30 04:00:00 9.8 8 Nordeste 21 Noroeste 0 -- -- 86
2019-07-30 03:00:00 9.5 5 Norte 30 Norte 0 -- -- 82
2019-07-30 02:00:00 9.9 4 Sudoeste 46 Noroeste 0 -- -- 82
2019-07-30 01:00:00 10.5 33 Noroeste 49 Noroeste 0 -- -- 82
2019-07-30 00:00:00 11.8 22 Noroeste 36 Noroeste 0 -- -- 76
2019-07-29 23:00:00 12.8 9 Noroeste 29 Noroeste 0 -- -- 70
2019-07-29 22:00:00 13.9 19 Noroeste 39 Oeste 0 -- -- 64
2019-07-29 21:00:00 15.8 20 Noroeste 40 Noroeste 0 -- -- 57
2019-07-29 20:00:00 17.8 26 Noroeste 48 Noroeste 0 -- -- 45
2019-07-29 19:00:00 18.6 25 Noroeste 51 Oeste 0 -- -- 41
2019-07-29 18:00:00 18.8 29 Noroeste 43 Oeste 0 -- -- 47
2019-07-29 17:00:00 18.8 19 Noroeste 47 Oeste 0 -- -- 47
2019-07-29 16:00:00 18.2 22 Noroeste 49 Oeste 0 -- -- 49
2019-07-29 15:00:00 18.4 23 Oeste 48 Noroeste 0 -- -- 49
2019-07-29 14:00:00 18 23 Noroeste 48 Oeste 0 -- -- 53
2019-07-29 13:00:00 17.2 27 Oeste 45 Oeste 0 -- -- 56
2019-07-29 12:00:00 16.2 21 Oeste 41 Oeste 0 -- -- 66
2019-07-29 11:00:00 14 14 Noroeste 37 Oeste 0 -- -- 82
2019-07-29 10:00:00 13.5 13 Noroeste 26 Noroeste 0 -- -- 81
2019-07-29 09:00:00 14 11 Oeste 19 Oeste 0 -- -- 71
2019-07-29 08:00:00 12.5 6 Oeste 10 Oeste 0 -- -- 70
2019-07-29 07:00:00 12.8 5 Norte 19 Norte 0 -- -- 75
2019-07-29 06:00:00 13.4 9 Norte 35 Noroeste 0 -- -- 72
2019-07-29 05:00:00 13.8 14 Norte 35 Norte 0 -- -- 63
2019-07-29 04:00:00 15 21 Noroeste 37 Noroeste 0 -- -- 57
2019-07-29 03:00:00 15.9 21 Noroeste 32 Oeste 0 -- -- 67
2019-07-29 02:00:00 15.7 6 Norte 17 Noroeste 0 -- -- 68
2019-07-29 01:00:00 15.4 9 Nordeste 15 Nordeste 0 -- -- 69
2019-07-29 00:00:00 15.2 6 Norte 13 Norte 0 -- -- 73
2019-07-28 23:00:00 16.9 10 Norte 12 Norte 0 -- -- 64
2019-07-28 22:00:00 20 6 Norte 14 Noroeste 0 -- -- 59
2019-07-28 21:00:00 22.6 6 Oeste 21 Oeste 0 -- -- 44
2019-07-28 20:00:00 23.6 11 Oeste 27 Oeste 0 -- -- 40
2019-07-28 19:00:00 23.7 13 Noroeste 26 Noroeste 0 -- -- 39
2019-07-28 18:00:00 24.2 10 Oeste 32 Oeste 0 -- -- 41
2019-07-28 17:00:00 23.5 7 Oeste 18 Oeste 0 -- -- 43
2019-07-28 16:00:00 22.4 8 Sudoeste 19 Noroeste 0 -- -- 49
2019-07-28 15:00:00 21 9 Noroeste 21 Noroeste 0 -- -- 46
2019-07-28 14:00:00 20.1 12 Sudoeste 26 Sudoeste 0 -- -- 52
2019-07-28 13:00:00 18.6 9 Sudoeste 21 Sudoeste 0 -- -- 59
2019-07-28 12:00:00 17.1 7 Sur 15 Sur 0 -- -- 61
2019-07-28 11:00:00 15 6 Sudoeste 13 Sudoeste 0 -- -- 68
2019-07-28 10:00:00 14 2 Este 7 Este 0 -- -- 73
2019-07-28 09:00:00 10.9 4 Nordeste 12 Norte 0 -- -- 87
2019-07-28 08:00:00 8.4 8 Norte 13 Norte 0 -- -- 94
2019-07-28 07:00:00 8.2 8 Norte 14 Norte 0 -- -- 95
2019-07-28 06:00:00 8.4 11 Norte 13 Norte 0 -- -- 93
2019-07-28 05:00:00 8.4 5 Oeste 15 Norte 0 -- -- 87
2019-07-28 04:00:00 8.8 3 Sudoeste 16 Norte 0 -- -- 84
2019-07-28 03:00:00 8.8 5 Oeste 18 Norte 0 -- -- 84
2019-07-28 02:00:00 10.8 12 Norte 16 Norte 0 -- -- 86
2019-07-28 01:00:00 12.3 9 Norte 15 Norte 0 -- -- 72
2019-07-28 00:00:00 12.9 9 Norte 24 Norte 0 -- -- 73
2019-07-27 23:00:00 14.2 16 Norte 27 Norte 0 -- -- 70
2019-07-26 12:00:00 -- -- -- -- -- -- -- -- --
2019-07-26 11:00:00 -- -- -- -- -- -- -- -- --
2019-07-26 10:00:00 -- -- -- -- -- -- -- -- --
2019-07-26 09:00:00 12.2 11 Noroeste 29 Noroeste 0 -- -- 83
2019-07-26 08:00:00 11.4 7 Noroeste 22 Norte 0 -- -- 85
2019-07-26 07:00:00 11.4 10 Noroeste 28 Noroeste 0 -- -- 88
2019-07-26 06:00:00 12 9 Noroeste 23 Oeste 0 -- -- 89
2019-07-26 05:00:00 12.8 7 Noroeste 34 Noroeste 0 -- -- 87
2019-07-26 04:00:00 13.5 11 Noroeste 32 Noroeste 0 -- -- 85
2019-07-26 03:00:00 14.5 7 Noroeste 28 Noroeste 0 -- -- 84
2019-07-26 02:00:00 15.1 8 Noroeste 32 Oeste 0 -- -- 87
2019-07-26 01:00:00 15.5 17 Noroeste 33 Noroeste 0 -- -- 89
2019-07-26 00:00:00 16.8 14 Noroeste 30 Noroeste 0 -- -- 82
2019-07-25 23:00:00 17.2 15 Noroeste 36 Noroeste 0 -- -- 84
2019-07-25 22:00:00 17.9 21 Noroeste 32 Noroeste 0 -- -- 81
2019-07-25 21:00:00 19.7 6 Este 17 Noroeste 0 -- -- 71
2019-07-25 20:00:00 21 6 Noroeste 21 Noroeste 0 -- -- 61
2019-07-25 19:00:00 21 16 Noroeste 35 Oeste 0 -- -- 59
2019-07-25 18:00:00 22.5 25 Noroeste 45 Noroeste 0 -- -- 51
2019-07-25 17:00:00 25.8 27 Noroeste 46 Noroeste 0 -- -- 46
2019-07-25 16:00:00 29.2 14 Oeste 31 Oeste 0 -- -- 39
2019-07-25 15:00:00 28.8 14 Oeste 50 Noroeste 0 -- -- 38
2019-07-25 14:00:00 27.6 16 Sudoeste 40 Sur 0 -- -- 40
2019-07-25 13:00:00 25.4 7 Sur 19 Sur 0 -- -- 47
2019-07-25 12:00:00 23.3 6 Sudoeste 16 Sur 0 -- -- 52
2019-07-25 11:00:00 21.9 4 Sudeste 17 Sudeste 0 -- -- 55
2019-07-25 10:00:00 20.4 5 Sudeste 11 Sudeste 0 -- -- 60
2019-07-25 09:00:00 18.8 3 Este 15 Norte 0 -- -- 66
2019-07-25 08:00:00 15 14 Norte 17 Norte 0 -- -- 70
2019-07-25 07:00:00 14.3 10 Norte 13 Norte 0 -- -- 79
2019-07-25 06:00:00 15.3 10 Norte 16 Norte 0 -- -- 70
2019-07-25 05:00:00 16.6 10 Norte 14 Norte 0 -- -- 69
2019-07-25 04:00:00 17.6 4 Norte 10 Norte 0 -- -- 72
2019-07-25 03:00:00 19.1 6 Norte 15 Noroeste 0 -- -- 70
2019-07-25 02:00:00 21 3 Noroeste 22 Noroeste 0 -- -- 53
2019-07-25 01:00:00 21.4 5 Nordeste 17 Noroeste 0 -- -- 58
2019-07-25 00:00:00 22.8 9 Norte 25 Noroeste 0 -- -- 52
2019-07-24 23:00:00 24.7 14 Noroeste 33 Noroeste 0 -- -- 45
2019-07-24 22:00:00 25.3 19 Noroeste 28 Noroeste 0 -- -- 44
2019-07-24 21:00:00 28.2 9 Oeste 28 Oeste 0 -- -- 39
2019-07-24 20:00:00 29.6 16 Oeste 31 Oeste 0 -- -- 33
2019-07-24 19:00:00 29.2 11 Sudoeste 31 Sudoeste 0 -- -- 38
2019-07-24 18:00:00 30.5 13 Sudoeste 34 Oeste 0 -- -- 35
2019-07-24 17:00:00 30.3 14 Sudoeste 32 Sudoeste 0 -- -- 37
2019-07-24 16:00:00 28.7 15 Sur 30 Sur 0 -- -- 46
2019-07-24 15:00:00 28.1 10 Sur 26 Sudoeste 0 -- -- 48
2019-07-24 14:00:00 27.3 12 Sudoeste 25 Sudoeste 0 -- -- 54
2019-07-24 13:00:00 26.1 12 Sudoeste 22 Sur 0 -- -- 55
2019-07-24 12:00:00 24.8 8 Sur 15 Sudoeste 0 -- -- 57
2019-07-24 11:00:00 22.7 5 Sur 12 Sur 0 -- -- 62
2019-07-24 10:00:00 21.2 7 Sudeste 13 Sudeste 0 -- -- 67
2019-07-24 09:00:00 17.8 6 Nordeste 11 Norte 0 -- -- 82
2019-07-24 08:00:00 16.4 9 Norte 14 Norte 0 -- -- 86
2019-07-24 07:00:00 16.2 9 Norte 13 Norte 0 -- -- 90
2019-07-24 06:00:00 16.7 8 Norte 14 Norte 0 -- -- 86
2019-07-24 05:00:00 16.7 4 Nordeste 14 Norte 0 -- -- 89
2019-07-24 04:00:00 17.8 12 Norte 17 Norte 0 -- -- 83
2019-07-24 03:00:00 17.2 6 Nordeste 17 Norte 0 -- -- 88
2019-07-24 02:00:00 17.6 11 Norte 26 Sudeste 0 -- -- 85
2019-07-24 01:00:00 18 9 Nordeste 23 Sudeste 0 -- -- 82
2019-07-24 00:00:00 18.4 11 Norte 22 Norte 0 -- -- 79
2019-07-23 23:00:00 18.6 17 Norte 24 Norte 0 -- -- 80
2019-07-23 22:00:00 18.4 19 Norte 37 Norte 0 -- -- 80
2019-07-23 21:00:00 17.9 27 Norte 40 Norte 5.4 -- -- 86
2019-07-23 20:00:00 17.8 17 Sudoeste 33 Sur 8.2 -- -- 87
2019-07-23 19:00:00 18.8 19 Nordeste 38 Sudeste 13.8 -- -- 89
2019-07-23 18:00:00 20.2 30 Este 62 Sur 10.8 -- -- 80
2019-07-23 17:00:00 28.4 8 Oeste 17 Sudoeste 0 -- -- 44
2019-07-23 16:00:00 28.5 5 Oeste 24 Sur 0 -- -- 43
2019-07-23 15:00:00 28.9 11 Sudoeste 28 Sudoeste 0 -- -- 45
2019-07-23 14:00:00 27.4 8 Sudoeste 21 Sur 0 -- -- 46
2019-07-23 13:00:00 24.7 6 Sudoeste 15 Sur 0 -- -- 55
2019-07-23 12:00:00 23.6 6 Sudoeste 21 Este 0 -- -- 59
2019-07-23 11:00:00 23 14 Este 24 Este 0 -- -- 60
2019-07-23 10:00:00 22.3 14 Sudeste 24 Sudeste 0 -- -- 63
2019-07-23 09:00:00 19 10 Norte 18 Nordeste 0 -- -- 75
2019-07-23 08:00:00 16.2 11 Nordeste 15 Nordeste 0 -- -- 84
2019-07-23 07:00:00 15.2 10 Norte 18 Sur 0.2 -- -- 89
2019-07-23 06:00:00 16.6 8 Norte 17 Norte 0 -- -- 78
2019-07-23 05:00:00 17.1 10 Nordeste 16 Norte 0 -- -- 81
2019-07-23 04:00:00 17.4 12 Norte 16 Norte 0 -- -- 79
2019-07-23 03:00:00 17.1 11 Norte 15 Nordeste 0 -- -- 83
2019-07-23 02:00:00 17.4 6 Oeste 18 Norte 0 -- -- 81
2019-07-23 01:00:00 19.6 9 Norte 27 Norte 0 -- -- 70
2019-07-23 00:00:00 18.2 8 Norte 23 Norte 0 -- -- 85
2019-07-22 23:00:00 18.9 10 Nordeste 28 Sudeste 1.2 -- -- 81
2019-07-22 22:00:00 20.2 6 Nordeste 21 Este 0.2 -- -- 74
2019-07-22 21:00:00 20.2 12 Sudoeste 50 Sudoeste 0 -- -- 68
2019-07-22 20:00:00 23.6 17 Noroeste 32 Noroeste 4.6 -- -- 51
2019-07-22 19:00:00 26.8 11 Norte 30 Oeste 0 -- -- 50
2019-07-22 18:00:00 32.3 8 Sudoeste 22 Sur 0 -- -- 36
2019-07-22 17:00:00 33.2 10 Sur 21 Sudoeste 0 -- -- 33
2019-07-22 16:00:00 32.1 10 Sudoeste 22 Sudoeste 0 -- -- 34
2019-07-22 15:00:00 32 12 Sudeste 22 Sudeste 0 -- -- 35
2019-07-22 14:00:00 30.7 9 Sur 22 Sur 0 -- -- 40
2019-07-22 13:00:00 29.3 9 Sudeste 21 Sudeste 0 -- -- 45
2019-07-22 12:00:00 27.3 9 Sudeste 19 Sudeste 0 -- -- 52
2019-07-22 11:00:00 24.5 14 Este 21 Sudeste 0 -- -- 59
2019-07-22 10:00:00 22.8 4 Sur 11 Sur 0 -- -- 66
2019-07-22 09:00:00 19 4 Norte 8 Nordeste 0 -- -- 81
2019-07-22 08:00:00 16.6 0 Calma 13 Norte 0 -- -- 86
2019-07-22 07:00:00 16.1 10 Norte 14 Norte 0 -- -- 88
2019-07-22 06:00:00 16.5 8 Norte 14 Norte 0 -- -- 86
2019-07-22 05:00:00 16.8 12 Norte 18 Norte 0 -- -- 85
2019-07-22 04:00:00 17 11 Norte 15 Norte 0 -- -- 83
2019-07-22 03:00:00 17.8 10 Norte 13 Norte 0 -- -- 80
2019-07-22 02:00:00 19.2 10 Norte 15 Nordeste 0 -- -- 74
2019-07-22 01:00:00 20.6 4 Nordeste 32 Sudeste 0 -- -- 69
2019-07-22 00:00:00 21.5 7 Norte 13 Norte 0 -- -- 66
2019-07-21 23:00:00 22.9 8 Norte 12 Norte 0 -- -- 58
2019-07-21 22:00:00 25.1 7 Noroeste 29 Noroeste 0 -- -- 48
2019-07-21 21:00:00 27.5 15 Noroeste 26 Oeste 0 -- -- 42
2019-07-21 20:00:00 29.2 14 Noroeste 26 Noroeste 0 -- -- 40
2019-07-21 19:00:00 30.3 10 Noroeste 25 Noroeste 0 -- -- 38
2019-07-21 18:00:00 29.7 13 Noroeste 27 Noroeste 0 -- -- 40
2019-07-21 17:00:00 29 7 Norte 20 Oeste 0 -- -- 42
2019-07-21 16:00:00 29.6 8 Oeste 20 Sur 0 -- -- 37
2019-07-21 15:00:00 28 10 Sudoeste 22 Sudoeste 0 -- -- 42
2019-07-21 14:00:00 27.2 11 Sur 21 Sur 0 -- -- 45
2019-07-21 13:00:00 25.4 3 Nordeste 16 Sur 0 -- -- 50
2019-07-21 12:00:00 23.6 6 Oeste 10 Oeste 0 -- -- 54
2019-07-21 11:00:00 21.5 4 Norte 10 Sudoeste 0 -- -- 64
2019-07-21 10:00:00 19.5 3 Sudoeste 10 Norte 0 -- -- 70
2019-07-21 09:00:00 16.2 8 Norte 17 Norte 0 -- -- 83
2019-07-21 08:00:00 13.3 11 Norte 15 Norte 0 -- -- 91
2019-07-21 07:00:00 13 9 Norte 12 Norte 0 -- -- 90
2019-07-21 06:00:00 12.8 3 Norte 12 Norte 0 -- -- 85
2019-07-21 05:00:00 13.2 2 Nordeste 16 Norte 0 -- -- 89
2019-07-21 04:00:00 14 14 Norte 19 Norte 0 -- -- 87
2019-07-21 03:00:00 15.2 10 Norte 13 Norte 0 -- -- 83
2019-07-21 02:00:00 16.5 6 Este 21 Norte 0 -- -- 76
2019-07-21 01:00:00 18.5 13 Nordeste 26 Oeste 0 -- -- 71
2019-07-21 00:00:00 19.3 10 Noroeste 21 Noroeste 0 -- -- 63
2019-07-20 23:00:00 21.1 13 Noroeste 39 Noroeste 0 -- -- 52
2019-07-20 22:00:00 22.3 22 Noroeste 37 Oeste 0 -- -- 50
2019-07-20 21:00:00 24.5 21 Noroeste 40 Oeste 0 -- -- 45
2019-07-20 20:00:00 26.2 27 Noroeste 44 Oeste 0 -- -- 42
2019-07-20 19:00:00 27.8 19 Noroeste 39 Oeste 0 -- -- 38
2019-07-20 18:00:00 28.2 23 Oeste 41 Oeste 0 -- -- 35
2019-07-20 17:00:00 28.2 21 Noroeste 38 Noroeste 0 -- -- 34
2019-07-20 16:00:00 28 19 Noroeste 49 Noroeste 0 -- -- 33
2019-07-20 15:00:00 26.8 27 Oeste 44 Noroeste 0 -- -- 30
2019-07-20 14:00:00 25.4 22 Noroeste 37 Oeste 0 -- -- 39
2019-07-20 13:00:00 24.5 16 Noroeste 32 Oeste 0 -- -- 48
2019-07-20 12:00:00 22.9 16 Oeste 30 Oeste 0 -- -- 56
2019-07-20 11:00:00 21.1 15 Noroeste 25 Noroeste 0 -- -- 64
2019-07-20 10:00:00 19 11 Noroeste 26 Noroeste 0 -- -- 72
2019-07-20 09:00:00 17.8 15 Noroeste 26 Norte 0 -- -- 78
2019-07-20 08:00:00 15.5 20 Norte 27 Norte 0 -- -- 89
2019-07-20 07:00:00 15.4 11 Norte 18 Norte 0 -- -- 89
2019-07-20 06:00:00 16.4 15 Nordeste 27 Nordeste 0 -- -- 88
2019-07-20 05:00:00 16.9 12 Nordeste 24 Nordeste 0 -- -- 85
2019-07-20 04:00:00 17.6 8 Norte 16 Este 0 -- -- 81
2019-07-20 03:00:00 17.9 11 Este 17 Nordeste 0 -- -- 79
2019-07-20 02:00:00 17.9 4 Este 12 Nordeste 0 -- -- 76
2019-07-20 01:00:00 18.8 3 Nordeste 15 Sudeste 0 -- -- 71
2019-07-20 00:00:00 19.2 7 Nordeste 14 Nordeste 0 -- -- 69
2019-07-19 23:00:00 21.5 5 Nordeste 19 Norte 0 -- -- 57
2019-07-19 22:00:00 24.6 15 Noroeste 32 Noroeste 0 -- -- 43
2019-07-19 21:00:00 26.6 17 Noroeste 37 Noroeste 0 -- -- 36
2019-07-19 20:00:00 28.1 23 Noroeste 47 Oeste 0 -- -- 32
2019-07-19 19:00:00 29.1 28 Noroeste 45 Noroeste 0 -- -- 32
2019-07-19 18:00:00 30.1 19 Noroeste 37 Noroeste 0 -- -- 32
2019-07-19 17:00:00 29.7 13 Noroeste 36 Oeste 0 -- -- 33
2019-07-19 16:00:00 29.8 8 Sudoeste 23 Sudoeste 0 -- -- 32
2019-07-19 15:00:00 28.7 6 Este 18 Sudoeste 0 -- -- 36
2019-07-19 14:00:00 28.1 8 Sudoeste 21 Oeste 0 -- -- 35
2019-07-19 13:00:00 26.5 6 Oeste 16 Este 0 -- -- 39
2019-07-19 12:00:00 24.6 5 Sur 15 Sur 0 -- -- 43
2019-07-19 11:00:00 22.4 8 Sur 13 Sur 0 -- -- 49
2019-07-19 10:00:00 20.7 2 Noroeste 6 Sur 0 -- -- 62
2019-07-19 09:00:00 17 6 Norte 13 Norte 0 -- -- 75
2019-07-19 08:00:00 14.6 10 Norte 14 Norte 0 -- -- 84
2019-07-19 07:00:00 13.7 11 Norte 14 Norte 0 -- -- 87
2019-07-19 06:00:00 14 10 Norte 14 Norte 0 -- -- 87
2019-07-19 05:00:00 14.6 10 Norte 13 Norte 0 -- -- 85
2019-07-19 04:00:00 15.4 9 Nordeste 10 Nordeste 0 -- -- 83
2019-07-19 03:00:00 15.3 4 Oeste 20 Norte 0 -- -- 78
2019-07-19 02:00:00 17.4 12 Norte 14 Norte 0 -- -- 73
2019-07-19 01:00:00 18.6 7 Nordeste 27 Norte 0 -- -- 66
2019-07-19 00:00:00 20.1 11 Norte 21 Noroeste 0 -- -- 61
2019-07-18 23:00:00 21.3 9 Nordeste 27 Noroeste 0 -- -- 57
2019-07-18 22:00:00 23.1 18 Noroeste 33 Noroeste 0 -- -- 47
2019-07-18 21:00:00 25.6 17 Noroeste 33 Noroeste 0 -- -- 39
2019-07-18 20:00:00 27.3 17 Noroeste 32 Oeste 0 -- -- 35
2019-07-18 19:00:00 28 20 Noroeste 33 Oeste 0 -- -- 34
2019-07-18 18:00:00 28.3 18 Oeste 32 Noroeste 0 -- -- 32
2019-07-18 17:00:00 27.9 16 Oeste 29 Noroeste 0 -- -- 34
2019-07-18 16:00:00 27.7 13 Oeste 30 Noroeste 0 -- -- 34
2019-07-18 15:00:00 26.2 17 Noroeste 30 Oeste 0 -- -- 34
2019-07-18 14:00:00 25.7 10 Oeste 24 Oeste 0 -- -- 36
2019-07-18 13:00:00 24.5 7 Noroeste 19 Oeste 0 -- -- 41
2019-07-18 12:00:00 22.1 11 Oeste 20 Sudoeste 0 -- -- 46
2019-07-18 11:00:00 18.9 7 Oeste 15 Oeste 0 -- -- 62
2019-07-18 10:00:00 16.5 8 Oeste 14 Oeste 0 -- -- 78
2019-07-18 09:00:00 15.1 4 Sudeste 15 Norte 0 -- -- 81
2019-07-18 08:00:00 12.7 2 Sur 10 Norte 0 -- -- 91
2019-07-18 07:00:00 11.5 2 Norte 8 Noroeste 0 -- -- 95
2019-07-18 06:00:00 11.3 0 Calma 6 Este 0 -- -- 90
2019-07-18 05:00:00 12 5 Norte 9 Norte 0 -- -- 90
2019-07-18 04:00:00 13.3 0 Calma 10 Noroeste 0 -- -- 87
2019-07-18 03:00:00 14.4 3 Oeste 21 Noroeste 0 -- -- 82
2019-07-18 02:00:00 14.3 12 Oeste 24 Norte 0 -- -- 85
2019-07-18 01:00:00 16.5 19 Norte 26 Norte 0 -- -- 82
2019-07-18 00:00:00 17.6 12 Noroeste 25 Norte 0 -- -- 74